CYLW/YLW METAR and TAF weather

Enter ICAO airport designator
Station Type Date Time Source
CYLW METAR 2019/07/17 18:00 UTC NOAA

CYLW 171800Z AUTO 22005KT 130V230 9SM FEW010 SCT120 17/15 A2976 RMK SLP078 DENSITY ALT 2100FT


Station Type Date Time Source
CYLW Decoded METAR 2019/07/17 18:00 UTC NOAA

Kelowna Airport, Canada (CYLW) 49-58N 119-23W 430M
Jul 17, 2019 - 02:00 PM EDT / 2019.07.17 1800 UTC
Wind: from the SW (220 degrees) at 6 MPH (5 KT) (direction variable):0
Visibility: 9 mile(s):0
Sky conditions: partly cloudy
Temperature: 62 F (17 C)
Dew Point: 59 F (15 C)
Relative Humidity: 88%
Pressure (altimeter): 29.76 in. Hg (1007 hPa)
ob: CYLW 171800Z AUTO 22005KT 130V230 9SM FEW010 SCT120 17/15 A2976 RMK SLP078 DENSITY ALT 2100FT
cycle: 18

Station Type Date Time Source
CYLW TAF 2019/07/17 19:39 UTC NOAA

TAF CYLW 171838Z 1719/1807 22008KT P6SM FEW050 BKN120
FM172100 21008KT P6SM SCT050 BKN100
TEMPO 1721/1801 P6SM -SHRA BKN050 BKN100
FM180300 19006KT P6SM FEW070 SCT120
RMK FCST BASED ON AUTO OBS. NXT FCST BY 180100Z

Example: see airport list